GUSTAVUS AK US NWS current weather conditions

sailwx.info

Wind from 340 at 1 knots gusting 4

Air temperature 13.8° C
Dewpoint 12.5° C

Last reported at 2020-Aug-05 03:52 UTC.
Time now 2020-Aug-05 04:16 UTC

Location: N 58°24' W 135°44'.
View on Google Maps.

See reports from other nearby stations

  
Tides and Currents Weather Stations Pressure Air Temp Water Temp Dewpoint Dewpoint Depression Visibility Wind Speed Wind Dir Waves Ship Positions
date/time (UTC)wind fromknots sea level pressurealtimeterstation pressurevisibilityair tempwater tempwave heightnotes
2020-Aug-05 03:52 340 1 gusting 4 13.8
2020-Aug-05 03:42 330 1 gusting 4 13.7
2020-Aug-05 03:32 330 1 gusting 2 13.6
2020-Aug-05 03:22 300 2 gusting 5 13.6
2020-Aug-05 03:12 300 4 gusting 6 14.2
2020-Aug-05 03:02 300 1 gusting 4 14.8
2020-Aug-05 02:52 270 1 gusting 2 14.9
2020-Aug-05 02:42 330 0 gusting 2 14.7
2020-Aug-05 02:32 340 1 gusting 4 14.4
2020-Aug-05 02:22 330 1 gusting 4 14.3
2020-Aug-05 02:12 300 1 gusting 5 14.3
2020-Aug-05 02:02 340 2 gusting 5 14.3
2020-Aug-05 01:52 340 2 gusting 6 14.3
2020-Aug-05 01:43 330 2 gusting 6 14.3
2020-Aug-05 01:32 320 4 gusting 6 14.3
2020-Aug-05 01:22 310 1 gusting 5 14.4
2020-Aug-05 01:12 320 4 gusting 6 14.5
2020-Aug-05 01:02 290 1 gusting 5 14.8
2020-Aug-05 00:52 320 1 gusting 5 15.1
2020-Aug-05 00:42 290 1 gusting 5 15.6
2020-Aug-05 00:32 300 1 gusting 4 16.3
2020-Aug-05 00:22 170 0 gusting 4 16.9
2020-Aug-05 00:12 120 0 gusting 4 16.7
2020-Aug-04 23:52 310 1 gusting 4 16.1
2020-Aug-04 23:42 320 2 gusting 6 15.8
2020-Aug-04 23:32 320 2 gusting 6 15.7
2020-Aug-04 23:22 310 2 gusting 4 15.4
2020-Aug-04 23:12 320 1 gusting 4 15.2
2020-Aug-04 23:02 270 2 gusting 5 15.2
2020-Aug-04 22:52 320 1 gusting 4 15.3
2020-Aug-04 22:42 320 1 gusting 5 15.1
2020-Aug-04 22:32 320 1 gusting 5 15.0
2020-Aug-04 22:22 310 1 gusting 4 14.7
2020-Aug-04 22:12 250 2 gusting 6 14.6
2020-Aug-04 22:02 300 2 gusting 6 14.4
2020-Aug-04 21:52 290 2 gusting 5 14.3
2020-Aug-04 21:42 270 4 gusting 6 14.6
2020-Aug-04 21:32 310 2 gusting 5 14.9
2020-Aug-04 21:22 150 2 gusting 6 15.7
2020-Aug-04 21:12 120 4 gusting 6 15.8
2020-Aug-04 21:02 120 4 gusting 7 15.8
2020-Aug-04 20:52 110 2 gusting 6 15.9
2020-Aug-04 20:42 310 0 gusting 2 15.8
2020-Aug-04 20:32 330 1 gusting 5 15.6
2020-Aug-04 20:22 270 1 gusting 4 15.5
2020-Aug-04 20:12 110 2 gusting 6 15.5
2020-Aug-04 20:02 360 1 gusting 5 15.6
2020-Aug-04 19:52 180 2 gusting 6 15.5
2020-Aug-04 19:42 150 4 gusting 8 15.4
2020-Aug-04 19:32 130 2 gusting 6 15.4
2020-Aug-04 19:22 110 1 gusting 6 15.2
2020-Aug-04 19:12 040 1 gusting 4 14.9
2020-Aug-04 19:02 020 0 gusting 2 14.6
2020-Aug-04 18:52 360 1 gusting 4 14.3
2020-Aug-04 18:42 350 1 gusting 4 14.2
2020-Aug-04 18:32 340 1 gusting 5 14.2
2020-Aug-04 18:22 030 1 gusting 6 14.3
2020-Aug-04 18:12 060 2 gusting 6 14.2
2020-Aug-04 18:02 040 1 gusting 6 14.0
2020-Aug-04 17:52 030 0 gusting 4 13.8
2020-Aug-04 17:42 350 0 gusting 2 13.6
2020-Aug-04 17:32 340 0 gusting 2 13.4
2020-Aug-04 17:22 360 1 gusting 4 13.1
2020-Aug-04 17:12 320 1 gusting 4 12.9
2020-Aug-04 17:02 340 0 gusting 2 12.7
2020-Aug-04 16:52 330 2 gusting 6 12.5
2020-Aug-04 16:42 310 2 gusting 6 12.5
2020-Aug-04 16:32 340 1 gusting 4 12.6
2020-Aug-04 16:22 330 1 gusting 4 12.5
2020-Aug-04 16:12 310 1 gusting 4 12.4
2020-Aug-04 16:02 330 1 gusting 2 12.4
2020-Aug-04 15:52 340 1 gusting 4 12.3
2020-Aug-04 15:42 330 2 gusting 4 12.2
2020-Aug-04 15:32 320 1 gusting 5 12.2
2020-Aug-04 15:22 330 2 gusting 5 12.1
2020-Aug-04 15:12 320 2 gusting 5 12.1
2020-Aug-04 15:02 320 2 gusting 6 12.1
2020-Aug-04 14:52 320 2 gusting 5 12.1
2020-Aug-04 14:42 310 1 gusting 5 12.0
2020-Aug-04 14:32 320 2 gusting 5 11.9
2020-Aug-04 14:22 320 1 gusting 4 11.9
2020-Aug-04 14:12 310 2 gusting 5 11.9
2020-Aug-04 14:02 310 1 gusting 4 11.9
2020-Aug-04 13:52 330 1 gusting 4 11.9
2020-Aug-04 13:42 320 1 gusting 2 11.9
2020-Aug-04 13:32 300 1 gusting 2 11.9
2020-Aug-04 13:22 320 0 gusting 1 12.0
2020-Aug-04 13:12 360 0 gusting 2 12.0
2020-Aug-04 13:02 340 1 gusting 2 11.9
2020-Aug-04 12:52 330 2 gusting 4 11.9
2020-Aug-04 12:42 340 1 gusting 2 12.0
2020-Aug-04 12:32 350 1 gusting 2 12.0
2020-Aug-04 12:22 340 1 gusting 2 12.0
2020-Aug-04 12:12 330 1 gusting 4 12.0
2020-Aug-04 12:02 330 1 gusting 2 12.1
2020-Aug-04 11:52 330 0 gusting 2 12.1
2020-Aug-04 11:42 340 1 gusting 2 12.1
2020-Aug-04 11:32 340 1 gusting 4 12.2
2020-Aug-04 11:22 360 1 gusting 2 12.3
2020-Aug-04 11:12 350 2 gusting 5 12.3
2020-Aug-04 11:02 360 1 gusting 2 12.4
2020-Aug-04 10:52 030 1 gusting 2 12.5
2020-Aug-04 10:42 070 1 gusting 5 12.5
2020-Aug-04 10:32 080 1 gusting 4 12.6
2020-Aug-04 10:22 090 1 gusting 5 12.7
2020-Aug-04 10:12 100 2 gusting 6 12.6
2020-Aug-04 10:02 080 1 gusting 6 12.7
2020-Aug-04 09:52 100 1 gusting 6 12.8
2020-Aug-04 09:42 070 2 gusting 5 12.7
2020-Aug-04 09:32 070 0 gusting 5 12.8
2020-Aug-04 09:22 060 1 gusting 4 12.7
2020-Aug-04 09:12 060 0 gusting 4 12.8
2020-Aug-04 09:02 12.9
2020-Aug-04 08:52 070 1 gusting 2 12.8
2020-Aug-04 08:42 110 1 gusting 4 12.9
2020-Aug-04 08:32 060 1 gusting 4 12.8
2020-Aug-04 08:22 120 1 gusting 5 12.9
2020-Aug-04 08:12 100 0 gusting 2 12.8
2020-Aug-04 08:02 120 0 gusting 1 12.8
2020-Aug-04 07:52 040 0 gusting 2 12.8
2020-Aug-04 07:42 360 0 gusting 1 12.9
2020-Aug-04 07:32 280 1 gusting 2 13.0
2020-Aug-04 07:22 070 0 gusting 1 13.2
2020-Aug-04 07:12 13.3
2020-Aug-04 07:02 13.4
2020-Aug-04 06:52 130 0 gusting 2 13.4
2020-Aug-04 06:42 080 1 gusting 5 13.3
2020-Aug-04 06:32 060 1 gusting 4 13.3
2020-Aug-04 06:22 13.3
2020-Aug-04 06:12 340 0 gusting 1 13.3
2020-Aug-04 06:02 13.4
2020-Aug-04 05:52 070 1 gusting 1 13.4
2020-Aug-04 05:42 13.5
2020-Aug-04 05:32 270 0 gusting 2 13.5
2020-Aug-04 05:22 190 1 gusting 2 13.7
2020-Aug-04 05:12 180 1 gusting 2 13.9
2020-Aug-04 05:02 360 0 gusting 1 14.1
2020-Aug-04 04:52 14.1
2020-Aug-04 04:42 14.1
2020-Aug-04 04:32 14.2
2020-Aug-04 04:22 14.1
2020-Aug-04 04:12 14.1
2020-Aug-04 04:02 14.1
2020-Aug-04 03:52 14.0
2020-Aug-04 03:42 250 0 gusting 2 13.9
2020-Aug-04 03:32 210 1 gusting 2 13.7
2020-Aug-04 03:22 220 1 gusting 4 13.7
2020-Aug-04 03:12 200 2 gusting 6 13.7
2020-Aug-04 03:02 200 2 gusting 5 13.7
2020-Aug-04 02:52 210 2 gusting 7 13.7
2020-Aug-04 02:42 210 2 gusting 6 13.7
2020-Aug-04 02:32 210 2 gusting 6 13.5
2020-Aug-04 02:22 210 4 gusting 11 13.8
2020-Aug-04 02:12 160 1 gusting 4 14.4
2020-Aug-04 02:02 140 1 gusting 2 14.3
2020-Aug-04 01:52 130 1 gusting 2 14.3
2020-Aug-04 01:42 130 0 gusting 2 14.3
2020-Aug-04 01:32 130 0 gusting 1 14.1
2020-Aug-04 01:22 180 1 gusting 4 14.1
2020-Aug-04 01:12 220 1 gusting 4 14.1
2020-Aug-04 01:02 200 2 gusting 4 14.2
2020-Aug-04 00:52 190 1 gusting 5 14.4
2020-Aug-04 00:42 190 2 gusting 5 14.6
2020-Aug-04 00:32 190 1 gusting 5 15.4
2020-Aug-04 00:22 080 0 gusting 1 15.6
2020-Aug-04 00:12 350 0 gusting 2 15.4
2020-Aug-03 23:52 360 1 gusting 4 15.1
2020-Aug-03 23:42 360 1 gusting 4 15.1
2020-Aug-03 23:32 010 0 gusting 2 14.9
2020-Aug-03 23:22 340 0 gusting 2 14.5
2020-Aug-03 23:12 330 0 gusting 2 14.0
2020-Aug-03 23:02 240 0 gusting 1 13.7
2020-Aug-03 22:52 290 1 gusting 4 13.4
2020-Aug-03 22:42 230 1 gusting 4 13.5
2020-Aug-03 22:32 180 2 gusting 5 13.5
2020-Aug-03 22:22 220 4 gusting 9 14.1
2020-Aug-03 22:12 220 1 gusting 4 14.7
2020-Aug-03 22:02 180 2 gusting 6 14.9
2020-Aug-03 21:52 140 2 gusting 5 15.7
2020-Aug-03 21:42 110 1 gusting 5 15.8
2020-Aug-03 21:32 120 1 gusting 4 15.5
2020-Aug-03 21:22 090 1 gusting 5 15.1
2020-Aug-03 21:12 090 1 gusting 4 14.9
2020-Aug-03 21:02 100 1 gusting 5 14.9
2020-Aug-03 20:53 160 1 gusting 2 14.9
2020-Aug-03 20:42 130 1 gusting 4 15.0
2020-Aug-03 20:32 120 1 gusting 4 15.1
2020-Aug-03 20:22 120 1 gusting 2 15.2
2020-Aug-03 20:12 140 1 gusting 5 15.3
2020-Aug-03 20:02 230 1 gusting 5 15.0
2020-Aug-03 19:52 220 1 gusting 4 14.9
2020-Aug-03 19:42 220 2 gusting 6 14.7
2020-Aug-03 19:32 200 4 gusting 6 14.7
2020-Aug-03 19:22 220 5 gusting 6 14.6
2020-Aug-03 19:12 210 2 gusting 6 15.2
2020-Aug-03 19:02 220 1 gusting 5 15.7
2020-Aug-03 18:52 220 1 gusting 4 15.3
2020-Aug-03 18:42 220 2 gusting 6 15.0
2020-Aug-03 18:32 220 2 gusting 6 15.1
2020-Aug-03 18:22 200 2 gusting 6 15.2
2020-Aug-03 18:12 190 1 gusting 4 15.3
2020-Aug-03 18:02 180 1 gusting 2 14.9
2020-Aug-03 17:52 14.9
2020-Aug-03 17:42 210 1 gusting 5 14.5
2020-Aug-03 17:32 190 0 gusting 4 14.7
2020-Aug-03 17:22 100 1 gusting 5 14.7
2020-Aug-03 17:12 14.7
2020-Aug-03 17:02 130 0 gusting 2 14.3
2020-Aug-03 16:52 230 1 gusting 2 13.9
2020-Aug-03 16:42 210 1 gusting 4 13.7
2020-Aug-03 16:32 230 1 gusting 4 13.6
2020-Aug-03 16:22 200 2 gusting 4 13.6
2020-Aug-03 16:12 210 2 gusting 4 13.7
2020-Aug-03 16:02 210 1 gusting 5 13.6
2020-Aug-03 15:52 160 0 gusting 2 13.5
2020-Aug-03 15:42 130 0 gusting 1 13.2
2020-Aug-03 15:32 090 0 gusting 2 13.0
2020-Aug-03 15:22 12.8
2020-Aug-03 15:12 12.7
2020-Aug-03 15:02 12.6
2020-Aug-03 14:52 12.5
2020-Aug-03 14:42 12.4
2020-Aug-03 14:32 12.3
2020-Aug-03 14:22 12.3
2020-Aug-03 14:12 12.1
2020-Aug-03 14:02 010 0 gusting 1 11.9
2020-Aug-03 13:52 11.8
2020-Aug-03 13:42 11.7
2020-Aug-03 13:32 040 0 gusting 0 11.7
2020-Aug-03 13:22 11.7
2020-Aug-03 13:12 11.7
2020-Aug-03 13:02 11.7
2020-Aug-03 12:52 040 0 gusting 1 11.9
2020-Aug-03 12:42 320 0 gusting 1 12.1
2020-Aug-03 12:32 300 0 gusting 1 12.3
2020-Aug-03 12:22 12.6
2020-Aug-03 12:12 12.6
2020-Aug-03 12:02 250 1 gusting 2 12.6
2020-Aug-03 11:52 210 0 gusting 2 12.7
2020-Aug-03 11:42 190 1 gusting 2 12.6
2020-Aug-03 11:32 190 1 gusting 2 12.4
2020-Aug-03 11:22 12.5
2020-Aug-03 11:12 12.6
2020-Aug-03 11:02 12.5
2020-Aug-03 10:52 210 1 gusting 4 12.4
2020-Aug-03 10:42 200 2 gusting 4 12.4
2020-Aug-03 10:22 210 0 gusting 2 12.7
2020-Aug-03 10:13 12.7
2020-Aug-03 10:02 12.7
2020-Aug-03 09:52 260 0 gusting 1 12.7
2020-Aug-03 09:42 330 0 gusting 2 12.7
2020-Aug-03 09:32 260 1 gusting 4 12.6
2020-Aug-03 09:22 210 0 gusting 2 12.7
2020-Aug-03 09:12 210 1 gusting 2 12.7
2020-Aug-03 09:02 230 1 gusting 2 12.8
2020-Aug-03 08:52 210 1 gusting 4 12.8
2020-Aug-03 08:43 220 1 gusting 4 12.8
2020-Aug-03 08:32 210 1 gusting 5 12.9
2020-Aug-03 08:22 220 0 gusting 2 12.9
2020-Aug-03 08:12 220 1 gusting 2 13.0
2020-Aug-03 08:02 230 1 gusting 2 13.0
2020-Aug-03 07:52 210 1 gusting 4 13.0
2020-Aug-03 07:42 220 2 gusting 5 13.1
2020-Aug-03 07:32 190 1 gusting 4 13.1
2020-Aug-03 07:22 200 1 gusting 2 13.1
2020-Aug-03 07:12 210 1 gusting 4 13.1
2020-Aug-03 07:02 170 1 gusting 2 13.0
2020-Aug-03 06:52 140 1 gusting 2 13.0
2020-Aug-03 06:42 120 0 gusting 1 13.2
2020-Aug-03 06:32 13.2
2020-Aug-03 06:22 230 1 gusting 4 13.2
2020-Aug-03 06:12 220 0 gusting 5 13.3
2020-Aug-03 06:02 130 0 gusting 2 13.3
2020-Aug-03 05:52 110 0 gusting 2 13.3
2020-Aug-03 05:42 170 0 gusting 2 13.4
2020-Aug-03 05:32 170 1 gusting 4 13.3
2020-Aug-03 05:22 180 1 gusting 2 13.3
2020-Aug-03 05:12 170 1 gusting 2 13.5
2020-Aug-03 05:02 220 1 gusting 2 13.6
2020-Aug-03 04:52 190 2 gusting 5 13.6
2020-Aug-03 04:42 200 1 gusting 4 13.9
2020-Aug-03 04:32 220 1 gusting 4 13.9
2020-Aug-03 04:22 230 1 gusting 6 13.8
2020-Aug-03 04:12 220 2 gusting 6 14.0
2020-Aug-03 04:02 220 1 gusting 5 14.1